sensor_id;sensor_type;location;lat;lon;timestamp;P1;durP1;ratioP1;P2;durP2;ratioP2
12869;SDS011;6503;48.572;13.460;2023-05-19T00:00:58;9.60;;;5.40;;
12869;SDS011;6503;48.572;13.460;2023-05-19T00:03:31;8.15;;;4.13;;
12869;SDS011;6503;48.572;13.460;2023-05-19T00:06:04;9.00;;;5.05;;
12869;SDS011;6503;48.572;13.460;2023-05-19T00:08:35;11.48;;;5.00;;
12869;SDS011;6503;48.572;13.460;2023-05-19T00:11:08;10.73;;;5.05;;
12869;SDS011;6503;48.572;13.460;2023-05-19T00:13:37;7.82;;;5.25;;
12869;SDS011;6503;48.572;13.460;2023-05-19T00:16:06;11.07;;;5.57;;
12869;SDS011;6503;48.572;13.460;2023-05-19T00:18:37;8.18;;;4.57;;
12869;SDS011;6503;48.572;13.460;2023-05-19T00:21:06;8.40;;;4.60;;
12869;SDS011;6503;48.572;13.460;2023-05-19T00:23:34;8.93;;;5.22;;
12869;SDS011;6503;48.572;13.460;2023-05-19T00:26:02;10.88;;;5.10;;
12869;SDS011;6503;48.572;13.460;2023-05-19T00:28:37;6.85;;;5.15;;
12869;SDS011;6503;48.572;13.460;2023-05-19T00:31:08;8.57;;;4.72;;
12869;SDS011;6503;48.572;13.460;2023-05-19T00:33:42;10.07;;;5.00;;
12869;SDS011;6503;48.572;13.460;2023-05-19T00:36:19;8.00;;;4.78;;
12869;SDS011;6503;48.572;13.460;2023-05-19T00:38:53;8.73;;;4.38;;
12869;SDS011;6503;48.572;13.460;2023-05-19T00:41:22;7.68;;;4.43;;
12869;SDS011;6503;48.572;13.460;2023-05-19T00:43:54;6.93;;;4.43;;
12869;SDS011;6503;48.572;13.460;2023-05-19T00:46:21;12.48;;;4.50;;
12869;SDS011;6503;48.572;13.460;2023-05-19T00:49:13;7.68;;;4.35;;
12869;SDS011;6503;48.572;13.460;2023-05-19T00:51:43;7.57;;;3.70;;
12869;SDS011;6503;48.572;13.460;2023-05-19T00:54:14;8.80;;;4.50;;
12869;SDS011;6503;48.572;13.460;2023-05-19T00:56:42;8.35;;;4.63;;
12869;SDS011;6503;48.572;13.460;2023-05-19T00:59:15;7.75;;;4.85;;
12869;SDS011;6503;48.572;13.460;2023-05-19T01:01:46;7.30;;;4.47;;
12869;SDS011;6503;48.572;13.460;2023-05-19T01:04:20;9.07;;;4.40;;
12869;SDS011;6503;48.572;13.460;2023-05-19T01:06:49;7.28;;;4.50;;
12869;SDS011;6503;48.572;13.460;2023-05-19T01:09:19;6.47;;;4.15;;
12869;SDS011;6503;48.572;13.460;2023-05-19T01:11:48;9.30;;;4.82;;
12869;SDS011;6503;48.572;13.460;2023-05-19T01:14:34;6.50;;;5.00;;
12869;SDS011;6503;48.572;13.460;2023-05-19T01:17:13;10.43;;;5.07;;
12869;SDS011;6503;48.572;13.460;2023-05-19T01:19:51;12.57;;;4.72;;
12869;SDS011;6503;48.572;13.460;2023-05-19T01:25:36;7.53;;;4.63;;
12869;SDS011;6503;48.572;13.460;2023-05-19T01:28:18;12.18;;;4.57;;
12869;SDS011;6503;48.572;13.460;2023-05-19T01:30:53;9.85;;;4.65;;
12869;SDS011;6503;48.572;13.460;2023-05-19T01:36:09;10.23;;;4.53;;
12869;SDS011;6503;48.572;13.460;2023-05-19T01:38:46;7.65;;;4.25;;
12869;SDS011;6503;48.572;13.460;2023-05-19T01:41:14;9.65;;;4.63;;
12869;SDS011;6503;48.572;13.460;2023-05-19T01:43:45;8.82;;;4.45;;
12869;SDS011;6503;48.572;13.460;2023-05-19T01:46:21;10.90;;;4.90;;
12869;SDS011;6503;48.572;13.460;2023-05-19T01:48:51;14.77;;;4.70;;
12869;SDS011;6503;48.572;13.460;2023-05-19T01:51:22;6.63;;;3.92;;
12869;SDS011;6503;48.572;13.460;2023-05-19T01:53:50;8.60;;;4.43;;
12869;SDS011;6503;48.572;13.460;2023-05-19T01:56:22;8.65;;;4.50;;
12869;SDS011;6503;48.572;13.460;2023-05-19T01:58:56;7.53;;;4.40;;
12869;SDS011;6503;48.572;13.460;2023-05-19T02:01:33;6.82;;;3.95;;
12869;SDS011;6503;48.572;13.460;2023-05-19T02:04:12;9.57;;;4.38;;
12869;SDS011;6503;48.572;13.460;2023-05-19T02:06:48;8.93;;;4.43;;
12869;SDS011;6503;48.572;13.460;2023-05-19T02:09:22;8.68;;;4.60;;
12869;SDS011;6503;48.572;13.460;2023-05-19T02:11:59;10.88;;;5.00;;
12869;SDS011;6503;48.572;13.460;2023-05-19T02:14:32;7.38;;;4.30;;
12869;SDS011;6503;48.572;13.460;2023-05-19T02:19:43;6.38;;;4.35;;
12869;SDS011;6503;48.572;13.460;2023-05-19T02:22:11;6.57;;;4.72;;
12869;SDS011;6503;48.572;13.460;2023-05-19T02:24:51;8.35;;;4.75;;
12869;SDS011;6503;48.572;13.460;2023-05-19T02:27:22;6.90;;;3.90;;
12869;SDS011;6503;48.572;13.460;2023-05-19T02:29:54;8.93;;;4.40;;
12869;SDS011;6503;48.572;13.460;2023-05-19T02:32:26;8.82;;;5.20;;
12869;SDS011;6503;48.572;13.460;2023-05-19T02:37:57;7.05;;;5.05;;
12869;SDS011;6503;48.572;13.460;2023-05-19T02:40:26;9.82;;;5.07;;
12869;SDS011;6503;48.572;13.460;2023-05-19T02:42:58;10.15;;;4.70;;
12869;SDS011;6503;48.572;13.460;2023-05-19T02:45:37;9.52;;;5.03;;
12869;SDS011;6503;48.572;13.460;2023-05-19T02:48:05;9.00;;;4.95;;
12869;SDS011;6503;48.572;13.460;2023-05-19T02:50:35;7.68;;;4.63;;
12869;SDS011;6503;48.572;13.460;2023-05-19T02:53:05;9.88;;;5.65;;
12869;SDS011;6503;48.572;13.460;2023-05-19T02:55:32;11.43;;;6.07;;
12869;SDS011;6503;48.572;13.460;2023-05-19T02:58:01;11.32;;;5.40;;
12869;SDS011;6503;48.572;13.460;2023-05-19T03:03:10;9.20;;;5.05;;
12869;SDS011;6503;48.572;13.460;2023-05-19T03:05:42;10.32;;;5.28;;
12869;SDS011;6503;48.572;13.460;2023-05-19T03:08:15;10.55;;;5.07;;
12869;SDS011;6503;48.572;13.460;2023-05-19T03:10:44;11.98;;;6.40;;
12869;SDS011;6503;48.572;13.460;2023-05-19T03:13:16;11.57;;;5.22;;
12869;SDS011;6503;48.572;13.460;2023-05-19T03:15:48;11.30;;;5.50;;
12869;SDS011;6503;48.572;13.460;2023-05-19T03:18:20;9.00;;;5.07;;
12869;SDS011;6503;48.572;13.460;2023-05-19T03:20:48;8.70;;;5.35;;
12869;SDS011;6503;48.572;13.460;2023-05-19T03:23:24;8.35;;;5.30;;
12869;SDS011;6503;48.572;13.460;2023-05-19T03:25:53;9.35;;;5.32;;
12869;SDS011;6503;48.572;13.460;2023-05-19T03:28:21;8.77;;;5.10;;
12869;SDS011;6503;48.572;13.460;2023-05-19T03:33:19;9.98;;;5.38;;
12869;SDS011;6503;48.572;13.460;2023-05-19T03:35:48;9.00;;;5.70;;
12869;SDS011;6503;48.572;13.460;2023-05-19T03:38:17;7.93;;;5.70;;
12869;SDS011;6503;48.572;13.460;2023-05-19T03:40:52;9.73;;;5.50;;
12869;SDS011;6503;48.572;13.460;2023-05-19T03:43:20;8.70;;;5.28;;
12869;SDS011;6503;48.572;13.460;2023-05-19T03:45:57;9.77;;;5.70;;
12869;SDS011;6503;48.572;13.460;2023-05-19T03:51:03;9.60;;;6.15;;
12869;SDS011;6503;48.572;13.460;2023-05-19T03:53:32;7.68;;;5.50;;
12869;SDS011;6503;48.572;13.460;2023-05-19T03:56:09;11.85;;;6.10;;
12869;SDS011;6503;48.572;13.460;2023-05-19T03:58:47;9.73;;;5.82;;
12869;SDS011;6503;48.572;13.460;2023-05-19T04:01:16;9.18;;;5.20;;
12869;SDS011;6503;48.572;13.460;2023-05-19T04:03:43;9.43;;;5.20;;
12869;SDS011;6503;48.572;13.460;2023-05-19T04:06:14;9.32;;;5.60;;
12869;SDS011;6503;48.572;13.460;2023-05-19T04:08:45;7.90;;;5.40;;
12869;SDS011;6503;48.572;13.460;2023-05-19T04:11:15;7.95;;;5.22;;
12869;SDS011;6503;48.572;13.460;2023-05-19T04:13:45;6.88;;;5.28;;
12869;SDS011;6503;48.572;13.460;2023-05-19T04:16:16;8.85;;;5.30;;
12869;SDS011;6503;48.572;13.460;2023-05-19T04:18:46;8.20;;;4.82;;
12869;SDS011;6503;48.572;13.460;2023-05-19T04:21:15;9.25;;;5.95;;
12869;SDS011;6503;48.572;13.460;2023-05-19T04:23:51;11.27;;;5.22;;
12869;SDS011;6503;48.572;13.460;2023-05-19T04:29:23;10.57;;;5.43;;
12869;SDS011;6503;48.572;13.460;2023-05-19T04:31:56;12.30;;;5.93;;
12869;SDS011;6503;48.572;13.460;2023-05-19T04:34:26;8.10;;;5.43;;
12869;SDS011;6503;48.572;13.460;2023-05-19T04:36:55;9.63;;;5.75;;
12869;SDS011;6503;48.572;13.460;2023-05-19T04:39:23;9.07;;;6.03;;
12869;SDS011;6503;48.572;13.460;2023-05-19T04:41:54;9.38;;;5.38;;
12869;SDS011;6503;48.572;13.460;2023-05-19T04:44:28;11.85;;;6.07;;
12869;SDS011;6503;48.572;13.460;2023-05-19T04:46:56;9.15;;;5.97;;
12869;SDS011;6503;48.572;13.460;2023-05-19T04:49:24;9.55;;;5.60;;
12869;SDS011;6503;48.572;13.460;2023-05-19T04:51:51;8.93;;;5.03;;
12869;SDS011;6503;48.572;13.460;2023-05-19T04:54:20;8.23;;;5.68;;
12869;SDS011;6503;48.572;13.460;2023-05-19T04:56:48;9.68;;;6.15;;
12869;SDS011;6503;48.572;13.460;2023-05-19T04:59:17;9.90;;;5.60;;
12869;SDS011;6503;48.572;13.460;2023-05-19T05:01:47;9.63;;;5.40;;
12869;SDS011;6503;48.572;13.460;2023-05-19T05:04:15;10.25;;;5.82;;
12869;SDS011;6503;48.572;13.460;2023-05-19T05:06:45;9.98;;;5.65;;
12869;SDS011;6503;48.572;13.460;2023-05-19T05:09:15;9.40;;;5.80;;
12869;SDS011;6503;48.572;13.460;2023-05-19T05:11:46;10.75;;;5.28;;
12869;SDS011;6503;48.572;13.460;2023-05-19T05:14:14;8.52;;;5.82;;
12869;SDS011;6503;48.572;13.460;2023-05-19T05:16:42;7.68;;;5.68;;
12869;SDS011;6503;48.572;13.460;2023-05-19T05:19:29;13.50;;;5.72;;
12869;SDS011;6503;48.572;13.460;2023-05-19T05:22:02;9.88;;;5.90;;
12869;SDS011;6503;48.572;13.460;2023-05-19T05:24:44;8.45;;;5.43;;
12869;SDS011;6503;48.572;13.460;2023-05-19T05:27:12;10.98;;;5.28;;
12869;SDS011;6503;48.572;13.460;2023-05-19T05:29:45;7.95;;;4.88;;
12869;SDS011;6503;48.572;13.460;2023-05-19T05:32:13;8.63;;;5.38;;
12869;SDS011;6503;48.572;13.460;2023-05-19T05:34:43;9.52;;;4.65;;
12869;SDS011;6503;48.572;13.460;2023-05-19T05:37:18;8.50;;;4.53;;
12869;SDS011;6503;48.572;13.460;2023-05-19T05:40:07;11.20;;;4.68;;
12869;SDS011;6503;48.572;13.460;2023-05-19T05:42:39;7.68;;;4.78;;
12869;SDS011;6503;48.572;13.460;2023-05-19T05:45:25;11.98;;;5.88;;
12869;SDS011;6503;48.572;13.460;2023-05-19T05:48:06;11.32;;;5.38;;
12869;SDS011;6503;48.572;13.460;2023-05-19T05:50:57;8.23;;;4.70;;
12869;SDS011;6503;48.572;13.460;2023-05-19T05:53:29;13.65;;;4.65;;
12869;SDS011;6503;48.572;13.460;2023-05-19T05:56:30;10.20;;;4.75;;
12869;SDS011;6503;48.572;13.460;2023-05-19T05:58:57;10.75;;;4.40;;
12869;SDS011;6503;48.572;13.460;2023-05-19T06:01:35;10.20;;;4.90;;
12869;SDS011;6503;48.572;13.460;2023-05-19T06:04:06;8.55;;;4.80;;
12869;SDS011;6503;48.572;13.460;2023-05-19T06:06:49;7.95;;;4.57;;
12869;SDS011;6503;48.572;13.460;2023-05-19T06:09:29;9.68;;;5.55;;
12869;SDS011;6503;48.572;13.460;2023-05-19T06:12:03;12.13;;;4.88;;
12869;SDS011;6503;48.572;13.460;2023-05-19T06:17:02;11.82;;;5.88;;
12869;SDS011;6503;48.572;13.460;2023-05-19T06:19:32;8.38;;;4.10;;
12869;SDS011;6503;48.572;13.460;2023-05-19T06:22:16;9.18;;;4.20;;
12869;SDS011;6503;48.572;13.460;2023-05-19T06:24:44;10.00;;;5.50;;
12869;SDS011;6503;48.572;13.460;2023-05-19T06:27:22;7.95;;;4.35;;
12869;SDS011;6503;48.572;13.460;2023-05-19T06:30:07;6.25;;;4.07;;
12869;SDS011;6503;48.572;13.460;2023-05-19T06:32:55;6.30;;;4.07;;
12869;SDS011;6503;48.572;13.460;2023-05-19T06:43:54;5.53;;;3.83;;
12869;SDS011;6503;48.572;13.460;2023-05-19T06:46:24;6.90;;;3.97;;
12869;SDS011;6503;48.572;13.460;2023-05-19T06:48:53;7.00;;;3.50;;
12869;SDS011;6503;48.572;13.460;2023-05-19T06:51:39;5.38;;;3.42;;
12869;SDS011;6503;48.572;13.460;2023-05-19T06:54:25;6.18;;;3.67;;
12869;SDS011;6503;48.572;13.460;2023-05-19T06:56:52;5.70;;;3.80;;
12869;SDS011;6503;48.572;13.460;2023-05-19T07:07:46;4.65;;;3.60;;
12869;SDS011;6503;48.572;13.460;2023-05-19T07:20:23;8.02;;;4.20;;
12869;SDS011;6503;48.572;13.460;2023-05-19T07:23:15;7.50;;;3.47;;
12869;SDS011;6503;48.572;13.460;2023-05-19T07:25:56;7.38;;;3.92;;
12869;SDS011;6503;48.572;13.460;2023-05-19T07:28:39;7.03;;;3.63;;
12869;SDS011;6503;48.572;13.460;2023-05-19T07:31:20;7.03;;;3.97;;
12869;SDS011;6503;48.572;13.460;2023-05-19T07:34:06;4.45;;;3.38;;
12869;SDS011;6503;48.572;13.460;2023-05-19T08:10:24;11.60;;;9.27;;
12869;SDS011;6503;48.572;13.460;2023-05-19T08:13:18;6.13;;;4.13;;
12869;SDS011;6503;48.572;13.460;2023-05-19T08:16:22;6.40;;;3.85;;
12869;SDS011;6503;48.572;13.460;2023-05-19T08:19:57;5.38;;;3.75;;
12869;SDS011;6503;48.572;13.460;2023-05-19T08:22:21;5.32;;;3.97;;
12869;SDS011;6503;48.572;13.460;2023-05-19T08:25:11;7.43;;;3.92;;
12869;SDS011;6503;48.572;13.460;2023-05-19T08:31:21;5.47;;;3.42;;
12869;SDS011;6503;48.572;13.460;2023-05-19T08:34:19;5.47;;;3.65;;
12869;SDS011;6503;48.572;13.460;2023-05-19T08:37:16;6.03;;;3.80;;
12869;SDS011;6503;48.572;13.460;2023-05-19T08:42:51;4.50;;;3.80;;
12869;SDS011;6503;48.572;13.460;2023-05-19T08:45:41;5.28;;;3.72;;
12869;SDS011;6503;48.572;13.460;2023-05-19T09:30:39;4.88;;;3.35;;
12869;SDS011;6503;48.572;13.460;2023-05-19T09:33:16;3.38;;;3.08;;
12869;SDS011;6503;48.572;13.460;2023-05-19T09:36:02;4.03;;;3.58;;
12869;SDS011;6503;48.572;13.460;2023-05-19T09:38:50;4.88;;;3.20;;
12869;SDS011;6503;48.572;13.460;2023-05-19T09:41:37;4.40;;;3.70;;
12869;SDS011;6503;48.572;13.460;2023-05-19T09:44:28;5.45;;;3.35;;
12869;SDS011;6503;48.572;13.460;2023-05-19T12:01:36;5.00;;;3.05;;
12869;SDS011;6503;48.572;13.460;2023-05-19T12:04:20;4.65;;;2.90;;
12869;SDS011;6503;48.572;13.460;2023-05-19T12:10:01;7.00;;;3.72;;
12869;SDS011;6503;48.572;13.460;2023-05-19T12:12:40;5.45;;;3.00;;
12869;SDS011;6503;48.572;13.460;2023-05-19T12:15:14;6.88;;;3.22;;
12869;SDS011;6503;48.572;13.460;2023-05-19T12:20:29;5.25;;;3.33;;
12869;SDS011;6503;48.572;13.460;2023-05-19T12:28:31;4.97;;;3.42;;
12869;SDS011;6503;48.572;13.460;2023-05-19T12:31:14;3.22;;;2.70;;
12869;SDS011;6503;48.572;13.460;2023-05-19T12:33:46;3.83;;;2.50;;
12869;SDS011;6503;48.572;13.460;2023-05-19T12:39:06;5.55;;;3.42;;
12869;SDS011;6503;48.572;13.460;2023-05-19T12:41:43;4.15;;;2.88;;
12869;SDS011;6503;48.572;13.460;2023-05-19T12:44:30;4.28;;;2.50;;
12869;SDS011;6503;48.572;13.460;2023-05-19T12:49:59;4.43;;;3.60;;
12869;SDS011;6503;48.572;13.460;2023-05-19T12:52:34;4.00;;;2.70;;
12869;SDS011;6503;48.572;13.460;2023-05-19T12:55:10;5.90;;;3.53;;
12869;SDS011;6503;48.572;13.460;2023-05-19T13:00:38;4.53;;;2.88;;
12869;SDS011;6503;48.572;13.460;2023-05-19T13:09:12;2.87;;;2.37;;
12869;SDS011;6503;48.572;13.460;2023-05-19T13:12:16;3.63;;;2.50;;
12869;SDS011;6503;48.572;13.460;2023-05-19T13:14:58;3.78;;;2.42;;
12869;SDS011;6503;48.572;13.460;2023-05-19T13:17:31;8.02;;;5.95;;
12869;SDS011;6503;48.572;13.460;2023-05-19T13:20:45;3.20;;;2.33;;
12869;SDS011;6503;48.572;13.460;2023-05-19T13:23:04;3.67;;;2.80;;
12869;SDS011;6503;48.572;13.460;2023-05-19T13:27:11;4.03;;;2.50;;
12869;SDS011;6503;48.572;13.460;2023-05-19T13:28:52;3.08;;;2.30;;
12869;SDS011;6503;48.572;13.460;2023-05-19T13:31:21;3.58;;;2.35;;
12869;SDS011;6503;48.572;13.460;2023-05-19T13:34:06;4.18;;;2.38;;
12869;SDS011;6503;48.572;13.460;2023-05-19T13:36:48;4.15;;;2.78;;
12869;SDS011;6503;48.572;13.460;2023-05-19T13:39:23;4.78;;;2.28;;
12869;SDS011;6503;48.572;13.460;2023-05-19T13:41:52;8.20;;;6.45;;
12869;SDS011;6503;48.572;13.460;2023-05-19T13:50:12;3.65;;;2.45;;
12869;SDS011;6503;48.572;13.460;2023-05-19T13:53:08;5.28;;;2.30;;
12869;SDS011;6503;48.572;13.460;2023-05-19T13:55:58;4.35;;;2.40;;
12869;SDS011;6503;48.572;13.460;2023-05-19T13:58:32;3.40;;;2.35;;
12869;SDS011;6503;48.572;13.460;2023-05-19T14:01:06;4.07;;;3.13;;
12869;SDS011;6503;48.572;13.460;2023-05-19T14:03:41;3.45;;;2.38;;
12869;SDS011;6503;48.572;13.460;2023-05-19T14:06:26;2.92;;;2.45;;
12869;SDS011;6503;48.572;13.460;2023-05-19T14:09:17;4.78;;;3.35;;
12869;SDS011;6503;48.572;13.460;2023-05-19T14:12:13;2.85;;;2.15;;
12869;SDS011;6503;48.572;13.460;2023-05-19T14:14:50;2.83;;;2.28;;
12869;SDS011;6503;48.572;13.460;2023-05-19T14:17:37;3.13;;;2.17;;
12869;SDS011;6503;48.572;13.460;2023-05-19T14:20:10;4.75;;;2.47;;
12869;SDS011;6503;48.572;13.460;2023-05-19T14:23:02;2.80;;;2.10;;
12869;SDS011;6503;48.572;13.460;2023-05-19T14:30:50;3.53;;;2.33;;
12869;SDS011;6503;48.572;13.460;2023-05-19T14:33:27;4.43;;;2.42;;
12869;SDS011;6503;48.572;13.460;2023-05-19T14:36:07;5.18;;;2.50;;
12869;SDS011;6503;48.572;13.460;2023-05-19T14:47:03;3.63;;;2.42;;
12869;SDS011;6503;48.572;13.460;2023-05-19T14:52:06;3.80;;;2.15;;
12869;SDS011;6503;48.572;13.460;2023-05-19T15:05:57;2.63;;;1.90;;
12869;SDS011;6503;48.572;13.460;2023-05-19T15:11:23;3.78;;;1.80;;
12869;SDS011;6503;48.572;13.460;2023-05-19T15:19:50;5.95;;;2.10;;
12869;SDS011;6503;48.572;13.460;2023-05-19T15:22:25;5.90;;;2.00;;
12869;SDS011;6503;48.572;13.460;2023-05-19T15:25:02;4.35;;;2.42;;
12869;SDS011;6503;48.572;13.460;2023-05-19T15:27:33;2.50;;;1.95;;
12869;SDS011;6503;48.572;13.460;2023-05-19T15:38:13;2.60;;;1.90;;
12869;SDS011;6503;48.572;13.460;2023-05-19T15:43:27;2.92;;;2.13;;
12869;SDS011;6503;48.572;13.460;2023-05-19T15:46:24;3.42;;;2.10;;
12869;SDS011;6503;48.572;13.460;2023-05-19T15:49:17;3.33;;;2.20;;
12869;SDS011;6503;48.572;13.460;2023-05-19T15:51:59;4.43;;;2.00;;
12869;SDS011;6503;48.572;13.460;2023-05-19T15:57:18;6.25;;;2.25;;
12869;SDS011;6503;48.572;13.460;2023-05-19T16:02:35;4.22;;;2.28;;
12869;SDS011;6503;48.572;13.460;2023-05-19T16:05:04;4.60;;;2.35;;
12869;SDS011;6503;48.572;13.460;2023-05-19T16:07:31;3.95;;;2.20;;
12869;SDS011;6503;48.572;13.460;2023-05-19T16:09:59;2.78;;;2.20;;
12869;SDS011;6503;48.572;13.460;2023-05-19T16:12:31;3.33;;;2.25;;
12869;SDS011;6503;48.572;13.460;2023-05-19T16:15:00;3.20;;;2.10;;
12869;SDS011;6503;48.572;13.460;2023-05-19T16:17:43;2.92;;;2.05;;
12869;SDS011;6503;48.572;13.460;2023-05-19T16:20:12;2.67;;;2.20;;
12869;SDS011;6503;48.572;13.460;2023-05-19T16:25:43;2.88;;;2.20;;
12869;SDS011;6503;48.572;13.460;2023-05-19T16:28:20;4.60;;;2.25;;
12869;SDS011;6503;48.572;13.460;2023-05-19T16:30:49;3.10;;;2.80;;
12869;SDS011;6503;48.572;13.460;2023-05-19T16:33:19;3.88;;;2.50;;
12869;SDS011;6503;48.572;13.460;2023-05-19T16:35:50;3.40;;;2.80;;
12869;SDS011;6503;48.572;13.460;2023-05-19T16:38:21;4.70;;;2.75;;
12869;SDS011;6503;48.572;13.460;2023-05-19T16:40:55;3.60;;;2.55;;
12869;SDS011;6503;48.572;13.460;2023-05-19T16:48:45;3.63;;;2.60;;
12869;SDS011;6503;48.572;13.460;2023-05-19T16:51:13;4.15;;;2.80;;
12869;SDS011;6503;48.572;13.460;2023-05-19T16:53:40;5.43;;;2.65;;
12869;SDS011;6503;48.572;13.460;2023-05-19T16:59:03;4.22;;;3.00;;
12869;SDS011;6503;48.572;13.460;2023-05-19T17:01:34;3.20;;;2.50;;
12869;SDS011;6503;48.572;13.460;2023-05-19T17:17:19;3.95;;;2.33;;
12869;SDS011;6503;48.572;13.460;2023-05-19T17:19:55;3.13;;;2.63;;
12869;SDS011;6503;48.572;13.460;2023-05-19T17:22:27;3.40;;;2.72;;
12869;SDS011;6503;48.572;13.460;2023-05-19T17:25:01;3.70;;;2.92;;
12869;SDS011;6503;48.572;13.460;2023-05-19T17:27:42;3.28;;;2.70;;
12869;SDS011;6503;48.572;13.460;2023-05-19T17:33:09;3.87;;;3.00;;
12869;SDS011;6503;48.572;13.460;2023-05-19T17:35:50;3.30;;;3.00;;
12869;SDS011;6503;48.572;13.460;2023-05-19T17:43:36;4.15;;;2.70;;
12869;SDS011;6503;48.572;13.460;2023-05-19T17:46:07;6.07;;;3.00;;
12869;SDS011;6503;48.572;13.460;2023-05-19T17:54:14;3.60;;;3.10;;
12869;SDS011;6503;48.572;13.460;2023-05-19T17:57:05;4.78;;;3.08;;
12869;SDS011;6503;48.572;13.460;2023-05-19T17:59:46;3.72;;;3.25;;
12869;SDS011;6503;48.572;13.460;2023-05-19T18:02:20;4.50;;;3.58;;
12869;SDS011;6503;48.572;13.460;2023-05-19T18:07:26;4.93;;;3.30;;
12869;SDS011;6503;48.572;13.460;2023-05-19T18:10:13;4.03;;;3.30;;
12869;SDS011;6503;48.572;13.460;2023-05-19T18:12:53;6.40;;;3.60;;
12869;SDS011;6503;48.572;13.460;2023-05-19T18:17:57;4.43;;;3.40;;
12869;SDS011;6503;48.572;13.460;2023-05-19T18:20:31;5.88;;;3.50;;
12869;SDS011;6503;48.572;13.460;2023-05-19T18:25:54;4.88;;;3.60;;
12869;SDS011;6503;48.572;13.460;2023-05-19T18:34:06;4.15;;;3.63;;
12869;SDS011;6503;48.572;13.460;2023-05-19T18:36:34;4.20;;;3.80;;
12869;SDS011;6503;48.572;13.460;2023-05-19T18:39:02;5.88;;;4.07;;
12869;SDS011;6503;48.572;13.460;2023-05-19T18:41:32;6.05;;;4.05;;
12869;SDS011;6503;48.572;13.460;2023-05-19T18:49:29;5.03;;;3.47;;
12869;SDS011;6503;48.572;13.460;2023-05-19T18:54:46;4.60;;;4.10;;
12869;SDS011;6503;48.572;13.460;2023-05-19T18:57:18;5.78;;;4.72;;
12869;SDS011;6503;48.572;13.460;2023-05-19T18:59:57;4.07;;;3.22;;
12869;SDS011;6503;48.572;13.460;2023-05-19T19:02:28;6.30;;;4.40;;
12869;SDS011;6503;48.572;13.460;2023-05-19T19:05:02;4.07;;;3.50;;
12869;SDS011;6503;48.572;13.460;2023-05-19T19:07:40;4.60;;;4.18;;
12869;SDS011;6503;48.572;13.460;2023-05-19T19:10:08;5.05;;;4.28;;
12869;SDS011;6503;48.572;13.460;2023-05-19T19:12:39;4.78;;;4.20;;
12869;SDS011;6503;48.572;13.460;2023-05-19T19:15:26;6.05;;;3.97;;
12869;SDS011;6503;48.572;13.460;2023-05-19T19:18:02;6.47;;;3.90;;
12869;SDS011;6503;48.572;13.460;2023-05-19T19:20:40;6.60;;;3.28;;
12869;SDS011;6503;48.572;13.460;2023-05-19T19:23:08;5.10;;;4.07;;
12869;SDS011;6503;48.572;13.460;2023-05-19T19:25:36;5.22;;;3.70;;
12869;SDS011;6503;48.572;13.460;2023-05-19T19:28:07;7.93;;;4.25;;
12869;SDS011;6503;48.572;13.460;2023-05-19T19:30:36;5.95;;;4.13;;
12869;SDS011;6503;48.572;13.460;2023-05-19T19:33:03;4.32;;;3.92;;
12869;SDS011;6503;48.572;13.460;2023-05-19T19:35:41;4.78;;;3.70;;
12869;SDS011;6503;48.572;13.460;2023-05-19T19:38:16;3.58;;;3.25;;
12869;SDS011;6503;48.572;13.460;2023-05-19T19:40:55;5.03;;;4.07;;
12869;SDS011;6503;48.572;13.460;2023-05-19T19:43:27;5.75;;;4.25;;
12869;SDS011;6503;48.572;13.460;2023-05-19T19:46:02;4.30;;;3.80;;
12869;SDS011;6503;48.572;13.460;2023-05-19T19:48:32;4.97;;;4.05;;
12869;SDS011;6503;48.572;13.460;2023-05-19T19:51:00;6.13;;;3.85;;
12869;SDS011;6503;48.572;13.460;2023-05-19T19:53:28;6.38;;;3.70;;
12869;SDS011;6503;48.572;13.460;2023-05-19T19:55:56;4.55;;;3.83;;
12869;SDS011;6503;48.572;13.460;2023-05-19T19:58:30;5.53;;;4.25;;
12869;SDS011;6503;48.572;13.460;2023-05-19T20:01:00;4.30;;;3.80;;
12869;SDS011;6503;48.572;13.460;2023-05-19T20:03:42;5.20;;;3.88;;
12869;SDS011;6503;48.572;13.460;2023-05-19T20:06:11;4.93;;;4.18;;
12869;SDS011;6503;48.572;13.460;2023-05-19T20:08:39;4.57;;;4.13;;
12869;SDS011;6503;48.572;13.460;2023-05-19T20:11:09;6.13;;;4.18;;
12869;SDS011;6503;48.572;13.460;2023-05-19T20:13:39;5.57;;;4.20;;
12869;SDS011;6503;48.572;13.460;2023-05-19T20:16:06;5.45;;;4.30;;
12869;SDS011;6503;48.572;13.460;2023-05-19T20:18:34;5.15;;;3.75;;
12869;SDS011;6503;48.572;13.460;2023-05-19T20:21:04;4.75;;;4.25;;
12869;SDS011;6503;48.572;13.460;2023-05-19T20:26:03;5.65;;;4.60;;
12869;SDS011;6503;48.572;13.460;2023-05-19T20:31:14;7.78;;;5.00;;
12869;SDS011;6503;48.572;13.460;2023-05-19T20:33:41;5.10;;;4.53;;
12869;SDS011;6503;48.572;13.460;2023-05-19T20:36:09;6.30;;;4.10;;
12869;SDS011;6503;48.572;13.460;2023-05-19T20:38:44;4.95;;;4.43;;
12869;SDS011;6503;48.572;13.460;2023-05-19T20:41:13;5.45;;;4.43;;
12869;SDS011;6503;48.572;13.460;2023-05-19T20:43:41;5.53;;;4.32;;
12869;SDS011;6503;48.572;13.460;2023-05-19T20:46:08;5.43;;;4.28;;
12869;SDS011;6503;48.572;13.460;2023-05-19T20:48:40;5.55;;;4.22;;
12869;SDS011;6503;48.572;13.460;2023-05-19T20:51:08;5.47;;;4.32;;
12869;SDS011;6503;48.572;13.460;2023-05-19T20:56:08;7.50;;;4.88;;
12869;SDS011;6503;48.572;13.460;2023-05-19T20:58:44;5.60;;;4.85;;
12869;SDS011;6503;48.572;13.460;2023-05-19T21:01:12;4.72;;;4.10;;
12869;SDS011;6503;48.572;13.460;2023-05-19T21:03:43;7.68;;;5.07;;
12869;SDS011;6503;48.572;13.460;2023-05-19T21:06:11;5.50;;;4.50;;
12869;SDS011;6503;48.572;13.460;2023-05-19T21:08:40;5.78;;;4.15;;
12869;SDS011;6503;48.572;13.460;2023-05-19T21:11:09;5.57;;;4.40;;
12869;SDS011;6503;48.572;13.460;2023-05-19T21:13:36;5.43;;;4.80;;
12869;SDS011;6503;48.572;13.460;2023-05-19T21:16:04;5.07;;;4.38;;
12869;SDS011;6503;48.572;13.460;2023-05-19T21:18:32;4.80;;;4.28;;
12869;SDS011;6503;48.572;13.460;2023-05-19T21:21:03;6.68;;;4.70;;
12869;SDS011;6503;48.572;13.460;2023-05-19T21:23:37;5.18;;;4.60;;
12869;SDS011;6503;48.572;13.460;2023-05-19T21:26:04;6.22;;;4.50;;
12869;SDS011;6503;48.572;13.460;2023-05-19T21:28:35;5.43;;;4.55;;
12869;SDS011;6503;48.572;13.460;2023-05-19T21:31:04;6.75;;;4.72;;
12869;SDS011;6503;48.572;13.460;2023-05-19T21:33:33;6.97;;;4.90;;
12869;SDS011;6503;48.572;13.460;2023-05-19T21:36:02;5.53;;;4.85;;
12869;SDS011;6503;48.572;13.460;2023-05-19T21:38:30;6.57;;;4.03;;
12869;SDS011;6503;48.572;13.460;2023-05-19T21:41:14;5.90;;;4.45;;
12869;SDS011;6503;48.572;13.460;2023-05-19T21:43:52;6.47;;;4.70;;
12869;SDS011;6503;48.572;13.460;2023-05-19T21:46:39;6.78;;;4.70;;
12869;SDS011;6503;48.572;13.460;2023-05-19T21:49:13;4.88;;;4.20;;
12869;SDS011;6503;48.572;13.460;2023-05-19T22:00:52;5.55;;;4.65;;
12869;SDS011;6503;48.572;13.460;2023-05-19T22:03:23;6.22;;;4.03;;
12869;SDS011;6503;48.572;13.460;2023-05-19T22:06:08;6.00;;;4.88;;
12869;SDS011;6503;48.572;13.460;2023-05-19T22:08:49;6.63;;;4.63;;
12869;SDS011;6503;48.572;13.460;2023-05-19T22:11:31;6.72;;;4.13;;
12869;SDS011;6503;48.572;13.460;2023-05-19T22:14:13;6.40;;;5.07;;
